createdAt,value
2023-05-21T00:00:37.969Z,9.719392
2023-05-21T00:01:37.953Z,9.719377
2023-05-21T00:02:38.088Z,9.719344
2023-05-21T00:03:38.050Z,9.719301
2023-05-21T00:04:38.070Z,9.719452
2023-05-21T00:05:39.245Z,9.719528
2023-05-21T00:06:37.945Z,9.719447
2023-05-21T00:07:37.908Z,9.719359
2023-05-21T00:08:37.899Z,9.719480
2023-05-21T00:09:37.924Z,9.719392
2023-05-21T00:10:37.867Z,9.719646
2023-05-21T00:11:37.870Z,9.719283
2023-05-21T00:12:37.880Z,9.719271
2023-05-21T00:13:37.834Z,9.719190
2023-05-21T00:14:37.852Z,9.719300
2023-05-21T00:15:38.029Z,9.719203
2023-05-21T00:16:37.850Z,9.719197
2023-05-21T00:17:37.817Z,9.719209
2023-05-21T00:18:37.791Z,9.719233
2023-05-21T00:19:37.797Z,9.719174
2023-05-21T00:20:37.796Z,9.719119
2023-05-21T00:21:37.801Z,9.719165
2023-05-21T00:22:37.775Z,9.719120
2023-05-21T00:23:37.792Z,9.719146
2023-05-21T00:24:37.782Z,9.719161
2023-05-21T00:25:37.826Z,9.719159
2023-05-21T00:26:37.732Z,9.719175
2023-05-21T00:27:37.734Z,9.719092
2023-05-21T00:28:37.706Z,9.719134
2023-05-21T00:29:37.709Z,9.719140
2023-05-21T00:30:37.682Z,9.719147
2023-05-21T00:31:37.727Z,9.719146
2023-05-21T00:32:37.718Z,9.719130
2023-05-21T00:33:37.647Z,9.719090
2023-05-21T00:34:37.650Z,9.719091
2023-05-21T00:35:37.784Z,9.719149
2023-05-21T00:36:37.654Z,9.719126
2023-05-21T00:37:37.619Z,9.719172
2023-05-21T00:38:37.588Z,9.719177
2023-05-21T00:39:37.618Z,9.719172
2023-05-21T00:40:37.626Z,9.719133
2023-05-21T00:41:37.562Z,9.719208
2023-05-21T00:42:37.548Z,9.719205
2023-05-21T00:43:37.570Z,9.719116
2023-05-21T00:44:37.541Z,9.719084
2023-05-21T00:45:38.071Z,9.719097
2023-05-21T00:46:37.515Z,9.719147
2023-05-21T00:47:37.564Z,9.719190
2023-05-21T00:48:37.526Z,9.719255
2023-05-21T00:49:37.467Z,9.719223
2023-05-21T00:50:37.468Z,9.719194
2023-05-21T00:51:37.457Z,9.719177
2023-05-21T00:52:37.459Z,9.719202
2023-05-21T00:53:37.445Z,9.719247
2023-05-21T00:54:37.469Z,9.719234
2023-05-21T00:55:37.749Z,9.719220
2023-05-21T00:56:37.552Z,9.719203
2023-05-21T00:57:37.412Z,9.719184
2023-05-21T00:58:37.450Z,9.719110
2023-05-21T00:59:38.387Z,9.719094
2023-05-21T01:00:37.432Z,9.719213
2023-05-21T01:01:37.504Z,9.719213
2023-05-21T01:02:37.692Z,9.719199
2023-05-21T01:03:37.405Z,9.719136
2023-05-21T01:04:37.347Z,9.719157
2023-05-21T01:05:37.485Z,9.719187
2023-05-21T01:06:37.335Z,9.719191
2023-05-21T01:07:37.289Z,9.719205
2023-05-21T01:08:37.281Z,9.719209
2023-05-21T01:09:37.357Z,9.719151
2023-05-21T01:10:37.283Z,9.719167
2023-05-21T01:11:37.266Z,9.719202
2023-05-21T01:12:37.253Z,9.719205
2023-05-21T01:13:37.236Z,9.719170
2023-05-21T01:14:37.267Z,9.719149
2023-05-21T01:15:37.404Z,9.719114
2023-05-21T01:16:37.267Z,9.719151
2023-05-21T01:17:37.229Z,9.719303
2023-05-21T01:18:37.267Z,9.719303
2023-05-21T01:19:37.213Z,9.719092
2023-05-21T01:20:37.190Z,9.719010
2023-05-21T01:21:37.218Z,9.718910
2023-05-21T01:22:37.140Z,9.719190
2023-05-21T01:23:37.162Z,9.719091
2023-05-21T01:24:37.166Z,9.719044
2023-05-21T01:25:37.328Z,9.718937
2023-05-21T01:26:37.118Z,9.718998
2023-05-21T01:27:37.204Z,9.719051
2023-05-21T01:28:37.112Z,9.719108
2023-05-21T01:29:37.105Z,9.719278
2023-05-21T01:30:37.086Z,9.719253
2023-05-21T01:31:37.087Z,9.719143
2023-05-21T01:32:37.083Z,9.718760
2023-05-21T01:33:37.104Z,9.718925
2023-05-21T01:34:37.072Z,9.719075
2023-05-21T01:35:37.251Z,9.719058
2023-05-21T01:36:37.023Z,9.719211
2023-05-21T01:37:37.025Z,9.719090
2023-05-21T01:38:36.986Z,9.719074
2023-05-21T01:39:37.003Z,9.719043
2023-05-21T01:40:36.996Z,9.719136
2023-05-21T01:41:36.959Z,9.719162
2023-05-21T01:42:36.982Z,9.719049
2023-05-21T01:43:36.964Z,9.719110
2023-05-21T01:44:36.962Z,9.719094
2023-05-21T01:45:37.074Z,9.719051
2023-05-21T01:46:36.938Z,9.719130
2023-05-21T01:47:36.928Z,9.719321
2023-05-21T01:48:36.907Z,9.719459
2023-05-21T01:49:36.876Z,9.719151
2023-05-21T01:50:36.877Z,9.718955
2023-05-21T01:51:36.894Z,9.719044
2023-05-21T01:52:36.851Z,9.719058
2023-05-21T01:53:36.882Z,9.718903
2023-05-21T01:54:36.834Z,9.718919
2023-05-21T01:55:37.108Z,9.718859
2023-05-21T01:56:36.824Z,9.719037
2023-05-21T01:57:36.800Z,9.719183
2023-05-21T01:58:36.779Z,9.719006
2023-05-21T01:59:36.792Z,9.719011
2023-05-21T02:00:36.799Z,9.719263
2023-05-21T02:01:36.796Z,9.719270
2023-05-21T02:02:36.796Z,9.719128
2023-05-21T02:03:36.921Z,9.718978
2023-05-21T02:04:36.733Z,9.719064
2023-05-21T02:05:36.987Z,9.719028
2023-05-21T02:06:36.706Z,9.718978
2023-05-21T02:07:36.700Z,9.719119
2023-05-21T02:08:36.700Z,9.719209
2023-05-21T02:09:36.673Z,9.719145
2023-05-21T02:10:36.728Z,9.719236
2023-05-21T02:11:36.646Z,9.719294
2023-05-21T02:12:36.668Z,9.719274
2023-05-21T02:13:36.625Z,9.719216
2023-05-21T02:14:36.638Z,9.719164
2023-05-21T02:15:36.889Z,9.719213
2023-05-21T02:16:36.716Z,9.719191
2023-05-21T02:17:36.626Z,9.719111
2023-05-21T02:18:36.625Z,9.718835
2023-05-21T02:19:36.683Z,9.718873
2023-05-21T02:20:36.611Z,9.719032
2023-05-21T02:21:36.555Z,9.718923
2023-05-21T02:22:36.556Z,9.718722
2023-05-21T02:23:36.580Z,9.718925
2023-05-21T02:24:36.527Z,9.719013
2023-05-21T02:25:36.906Z,9.718981
2023-05-21T02:26:36.567Z,9.718966
2023-05-21T02:27:36.550Z,9.719207
2023-05-21T02:28:36.565Z,9.719139
2023-05-21T02:29:36.512Z,9.719113
2023-05-21T02:30:36.502Z,9.719000
2023-05-21T02:31:36.454Z,9.719140
2023-05-21T02:32:36.520Z,9.719592
2023-05-21T02:33:36.525Z,9.719687
2023-05-21T02:34:36.451Z,9.719605
2023-05-21T02:35:36.755Z,9.719151
2023-05-21T02:36:36.440Z,9.718943
2023-05-21T02:37:36.452Z,9.718942
2023-05-21T02:38:36.395Z,9.718500
2023-05-21T02:39:36.376Z,9.718175
2023-05-21T02:40:36.406Z,9.718920
2023-05-21T02:41:36.374Z,9.719137
2023-05-21T02:42:36.362Z,9.718844
2023-05-21T02:43:36.354Z,9.718913
2023-05-21T02:44:36.324Z,9.719060
2023-05-21T02:45:36.609Z,9.719035
2023-05-21T02:46:36.341Z,9.719279
2023-05-21T02:47:36.316Z,9.719296
2023-05-21T02:48:36.378Z,9.719241
2023-05-21T02:49:36.292Z,9.719287
2023-05-21T02:50:36.265Z,9.719007
2023-05-21T02:51:36.304Z,9.718914
2023-05-21T02:52:36.259Z,9.719205
2023-05-21T02:53:36.259Z,9.719238
2023-05-21T02:54:36.238Z,9.719152
2023-05-21T02:55:36.447Z,9.719129
2023-05-21T02:56:36.238Z,9.719155
2023-05-21T02:57:36.228Z,9.718764
2023-05-21T02:58:36.203Z,9.719007
2023-05-21T02:59:36.188Z,9.719125
2023-05-21T03:00:36.199Z,9.719012
2023-05-21T03:01:36.269Z,9.719061
2023-05-21T03:02:36.240Z,9.719232
2023-05-21T03:03:36.186Z,9.719002
2023-05-21T03:04:36.182Z,9.719185
2023-05-21T03:05:36.272Z,9.719082
2023-05-21T03:06:36.119Z,9.719014
2023-05-21T03:07:37.109Z,9.719099
2023-05-21T03:08:36.127Z,9.719110
2023-05-21T03:09:36.100Z,9.719125
2023-05-21T03:10:36.158Z,9.719193
2023-05-21T03:11:36.110Z,9.719157
2023-05-21T03:12:36.049Z,9.719239
2023-05-21T03:13:36.086Z,9.719135
2023-05-21T03:14:36.023Z,9.719144
2023-05-21T03:15:36.126Z,9.719159
2023-05-21T03:16:36.069Z,9.719073
2023-05-21T03:17:36.081Z,9.719128
2023-05-21T03:18:35.992Z,9.719152
2023-05-21T03:19:36.080Z,9.719213
2023-05-21T03:20:35.966Z,9.719234
2023-05-21T03:21:35.960Z,9.719244
2023-05-21T03:22:35.959Z,9.719180
2023-05-21T03:23:35.967Z,9.719202
2023-05-21T03:24:35.937Z,9.719160
2023-05-21T03:25:36.276Z,9.719147
2023-05-21T03:26:35.950Z,9.719269
2023-05-21T03:27:35.894Z,9.719256
2023-05-21T03:28:35.904Z,9.719208
2023-05-21T03:29:35.944Z,9.719253
2023-05-21T03:30:35.915Z,9.719284
2023-05-21T03:31:35.933Z,9.719209
2023-05-21T03:32:35.894Z,9.719260
2023-05-21T03:33:35.844Z,9.719151
2023-05-21T03:34:35.872Z,9.719177
2023-05-21T03:35:36.065Z,9.719180
2023-05-21T03:36:35.822Z,9.718967
2023-05-21T03:37:35.847Z,9.719219
2023-05-21T03:38:37.077Z,9.719176
2023-05-21T03:39:36.809Z,9.719148
2023-05-21T03:40:35.794Z,9.719153
2023-05-21T03:41:35.829Z,9.719233
2023-05-21T03:42:35.764Z,9.719148
2023-05-21T03:43:35.748Z,9.719135
2023-05-21T03:44:35.758Z,9.719110
2023-05-21T03:45:35.993Z,9.719078
2023-05-21T03:46:35.782Z,9.719172
2023-05-21T03:47:35.760Z,9.718987
2023-05-21T03:48:35.716Z,9.719213
2023-05-21T03:49:35.709Z,9.719071
2023-05-21T03:50:35.685Z,9.719058
2023-05-21T03:51:35.695Z,9.719152
2023-05-21T03:52:35.709Z,9.719114
2023-05-21T03:53:35.652Z,9.719062
2023-05-21T03:54:35.644Z,9.719108
2023-05-21T03:55:35.797Z,9.719204
2023-05-21T03:56:36.628Z,9.719097
2023-05-21T03:57:35.596Z,9.719064
2023-05-21T03:58:35.596Z,9.718880
2023-05-21T03:59:35.611Z,9.719090
2023-05-21T04:00:35.620Z,9.719171
2023-05-21T04:01:35.576Z,9.719350
2023-05-21T04:02:35.626Z,9.719496
2023-05-21T04:03:36.728Z,9.719110
2023-05-21T04:04:35.608Z,9.719337
2023-05-21T04:05:35.782Z,9.719460
2023-05-21T04:06:35.547Z,9.719302
2023-05-21T04:07:35.554Z,9.719077
2023-05-21T04:08:35.537Z,9.719290
2023-05-21T04:09:36.676Z,9.719131
2023-05-21T04:10:36.536Z,9.719162
2023-05-21T04:11:35.474Z,9.719135
2023-05-21T04:12:35.454Z,9.719382
2023-05-21T04:13:35.462Z,9.719155
2023-05-21T04:14:35.457Z,9.719147
2023-05-21T04:15:35.678Z,9.719200
2023-05-21T04:16:35.537Z,9.719193
2023-05-21T04:17:35.482Z,9.719342
2023-05-21T04:18:35.403Z,9.719302
2023-05-21T04:19:35.582Z,9.719378
2023-05-21T04:20:35.380Z,9.719334
2023-05-21T04:21:35.375Z,9.719258
2023-05-21T04:22:35.471Z,9.719336
2023-05-21T04:23:35.359Z,9.719282
2023-05-21T04:24:35.402Z,9.719434
2023-05-21T04:25:35.576Z,9.719423
2023-05-21T04:26:35.354Z,9.719362
2023-05-21T04:27:35.378Z,9.719275
2023-05-21T04:28:35.310Z,9.719313
2023-05-21T04:29:35.336Z,9.719225
2023-05-21T04:30:35.332Z,9.719299
2023-05-21T04:31:35.344Z,9.719324
2023-05-21T04:32:35.313Z,9.719393
2023-05-21T04:33:35.269Z,9.719442
2023-05-21T04:34:35.295Z,9.719475
2023-05-21T04:35:35.478Z,9.719474
2023-05-21T04:36:35.241Z,9.719450
2023-05-21T04:37:35.384Z,9.719362
2023-05-21T04:38:35.206Z,9.719347
2023-05-21T04:39:35.224Z,9.719376
2023-05-21T04:40:36.940Z,9.719358
2023-05-21T04:41:35.172Z,9.719382
2023-05-21T04:42:35.187Z,9.719271
2023-05-21T04:43:35.159Z,9.719200
2023-05-21T04:44:35.179Z,9.719095
2023-05-21T04:45:35.414Z,9.719289
2023-05-21T04:46:35.229Z,9.719438
2023-05-21T04:47:35.142Z,9.719498
2023-05-21T04:48:35.230Z,9.719426
2023-05-21T04:49:35.121Z,9.719535
2023-05-21T04:50:35.118Z,9.719343
2023-05-21T04:51:35.118Z,9.719172
2023-05-21T04:52:35.093Z,9.719498
2023-05-21T04:53:35.069Z,9.719250
2023-05-21T04:54:35.081Z,9.719420
2023-05-21T04:56:06.947Z,9.719378
2023-05-21T04:56:35.030Z,9.719388
2023-05-21T04:57:35.003Z,9.719318
2023-05-21T04:58:35.004Z,9.719358
2023-05-21T04:59:35.005Z,9.719416
2023-05-21T05:00:35.024Z,9.719450
2023-05-21T05:01:34.975Z,9.719280
2023-05-21T05:02:35.969Z,9.719296
2023-05-21T05:03:35.015Z,9.719162
2023-05-21T05:04:34.962Z,9.719104
2023-05-21T05:05:35.288Z,9.719149
2023-05-21T05:06:34.935Z,9.719095
2023-05-21T05:07:34.911Z,9.719055
2023-05-21T05:08:34.897Z,9.719055
2023-05-21T05:09:34.948Z,9.718986
2023-05-21T05:10:34.881Z,9.719061
2023-05-21T05:11:34.912Z,9.719106
2023-05-21T05:12:34.860Z,9.719066
2023-05-21T05:13:34.945Z,9.719129
2023-05-21T05:14:34.834Z,9.719214
2023-05-21T05:16:06.766Z,9.719201
2023-05-21T05:16:34.861Z,9.719185
2023-05-21T05:17:34.826Z,9.719251
2023-05-21T05:18:34.783Z,9.719191
2023-05-21T05:19:34.929Z,9.719227
2023-05-21T05:20:34.826Z,9.719213
2023-05-21T05:21:34.784Z,9.719148
2023-05-21T05:22:34.753Z,9.719142
2023-05-21T05:23:34.736Z,9.719123
2023-05-21T05:24:34.750Z,9.719170
2023-05-21T05:25:34.791Z,9.719046
2023-05-21T05:26:34.741Z,9.719030
2023-05-21T05:27:36.997Z,9.719181
2023-05-21T05:28:34.695Z,9.719160
2023-05-21T05:29:34.685Z,9.719143
2023-05-21T05:30:34.698Z,9.719126
2023-05-21T05:31:34.751Z,9.719191
2023-05-21T05:32:34.668Z,9.719256
2023-05-21T05:33:34.624Z,9.719184
2023-05-21T05:34:34.625Z,9.719215
2023-05-21T05:35:34.800Z,9.719208
2023-05-21T05:36:34.619Z,9.719268
2023-05-21T05:37:34.624Z,9.719234
2023-05-21T05:38:34.585Z,9.719226
2023-05-21T05:39:34.567Z,9.719210
2023-05-21T05:40:34.560Z,9.719225
2023-05-21T05:41:34.552Z,9.719192
2023-05-21T05:42:34.591Z,9.719261
2023-05-21T05:43:34.544Z,9.719287
2023-05-21T05:44:34.546Z,9.719218
2023-05-21T05:45:34.677Z,9.719118
2023-05-21T05:46:34.511Z,9.719140
2023-05-21T05:47:34.516Z,9.719232
2023-05-21T05:48:34.494Z,9.719156
2023-05-21T05:49:34.476Z,9.719279
2023-05-21T05:50:34.468Z,9.719286
2023-05-21T05:51:34.574Z,9.719331
2023-05-21T05:52:34.451Z,9.719278
2023-05-21T05:53:34.464Z,9.719210
2023-05-21T05:54:34.441Z,9.719321
2023-05-21T05:55:34.622Z,9.719161
2023-05-21T05:56:34.416Z,9.719231
2023-05-21T05:57:34.442Z,9.719365
2023-05-21T05:58:34.408Z,9.719378
2023-05-21T05:59:34.394Z,9.719347
2023-05-21T06:00:34.380Z,9.719451
2023-05-21T06:01:34.397Z,9.719226
2023-05-21T06:02:34.421Z,9.719139
2023-05-21T06:03:34.518Z,9.719138
2023-05-21T06:04:34.327Z,9.719173
2023-05-21T06:05:34.459Z,9.719202
2023-05-21T06:06:34.379Z,9.719231
2023-05-21T06:07:34.287Z,9.719169
2023-05-21T06:08:37.360Z,9.719240
2023-05-21T06:09:34.259Z,9.719300
2023-05-21T06:10:34.276Z,9.719245
2023-05-21T06:11:34.283Z,9.719317
2023-05-21T06:12:35.244Z,9.719361
2023-05-21T06:13:34.240Z,9.719119
2023-05-21T06:14:34.227Z,9.719519
2023-05-21T06:15:34.272Z,9.719623
2023-05-21T06:16:34.363Z,9.719644
2023-05-21T06:17:34.207Z,9.719267
2023-05-21T06:18:34.174Z,9.719494
2023-05-21T06:19:34.302Z,9.719498
2023-05-21T06:20:34.169Z,9.719313
2023-05-21T06:21:34.146Z,9.719295
2023-05-21T06:22:34.144Z,9.719090
2023-05-21T06:23:34.115Z,9.719299
2023-05-21T06:24:34.194Z,9.719304
2023-05-21T06:25:34.210Z,9.719232
2023-05-21T06:26:34.109Z,9.719329
2023-05-21T06:27:34.094Z,9.719163
2023-05-21T06:28:34.118Z,9.719531
2023-05-21T06:29:34.102Z,9.718892
2023-05-21T06:30:34.051Z,9.718754
2023-05-21T06:31:34.046Z,9.718987
2023-05-21T06:32:34.210Z,9.719292
2023-05-21T06:33:34.178Z,9.719389
2023-05-21T06:34:34.033Z,9.719476
2023-05-21T06:35:34.137Z,9.719321
2023-05-21T06:36:34.004Z,9.719211
2023-05-21T06:37:33.994Z,9.719101
2023-05-21T06:38:34.015Z,9.719040
2023-05-21T06:39:34.018Z,9.719222
2023-05-21T06:40:33.965Z,9.719098
2023-05-21T06:41:33.961Z,9.719069
2023-05-21T06:42:33.945Z,9.719181
2023-05-21T06:43:34.010Z,9.719034
2023-05-21T06:44:33.914Z,9.719091
2023-05-21T06:45:33.938Z,9.718973
2023-05-21T06:46:34.082Z,9.719003
2023-05-21T06:47:33.925Z,9.718948
2023-05-21T06:48:33.882Z,9.719054
2023-05-21T06:49:33.859Z,9.719267
2023-05-21T06:50:33.849Z,9.719250
2023-05-21T06:51:33.856Z,9.719311
2023-05-21T06:52:33.841Z,9.719541
2023-05-21T06:53:33.844Z,9.719307
2023-05-21T06:54:33.795Z,9.719234
2023-05-21T06:55:33.888Z,9.719338
2023-05-21T06:56:33.785Z,9.719152
2023-05-21T06:57:33.789Z,9.719286
2023-05-21T06:58:33.789Z,9.719353
2023-05-21T06:59:33.761Z,9.719278
2023-05-21T07:00:33.759Z,9.719274
2023-05-21T07:01:33.775Z,9.719264
2023-05-21T07:02:33.801Z,9.719291
2023-05-21T07:03:33.764Z,9.719168
2023-05-21T07:04:33.707Z,9.719166
2023-05-21T07:05:33.697Z,9.719215
2023-05-21T07:06:33.688Z,9.719090
2023-05-21T07:07:33.714Z,9.719172
2023-05-21T07:08:33.663Z,9.719298
2023-05-21T07:09:33.657Z,9.719276
2023-05-21T07:10:33.651Z,9.719340
2023-05-21T07:11:33.641Z,9.719291
2023-05-21T07:12:33.642Z,9.719129
2023-05-21T07:13:33.628Z,9.719242
2023-05-21T07:14:33.593Z,9.719102
2023-05-21T07:15:33.661Z,9.719212
2023-05-21T07:16:33.653Z,9.719366
2023-05-21T07:17:33.614Z,9.719191
2023-05-21T07:18:33.575Z,9.719292
2023-05-21T07:19:33.624Z,9.719323
2023-05-21T07:20:33.558Z,9.719244
2023-05-21T07:21:33.533Z,9.719253
2023-05-21T07:22:33.521Z,9.719290
2023-05-21T07:23:33.524Z,9.719197
2023-05-21T07:24:33.508Z,9.719223
2023-05-21T07:25:33.493Z,9.719236
2023-05-21T07:26:33.478Z,9.719335
2023-05-21T07:27:33.472Z,9.719329
2023-05-21T07:28:33.464Z,9.719055
2023-05-21T07:29:33.492Z,9.719378
2023-05-21T07:30:33.454Z,9.719275
2023-05-21T07:31:33.476Z,9.719168
2023-05-21T07:32:33.495Z,9.719486
2023-05-21T07:33:33.393Z,9.719516
2023-05-21T07:34:33.409Z,9.719131
2023-05-21T07:35:33.400Z,9.719327
2023-05-21T07:36:33.405Z,9.719245
2023-05-21T07:37:33.399Z,9.719130
2023-05-21T07:38:34.367Z,9.719403
2023-05-21T07:39:33.386Z,9.719576
2023-05-21T07:40:33.359Z,9.719588
2023-05-21T07:41:33.437Z,9.719349
2023-05-21T07:42:33.314Z,9.719296
2023-05-21T07:43:33.337Z,9.719381
2023-05-21T07:44:33.333Z,9.719507
2023-05-21T07:45:33.300Z,9.719694
2023-05-21T07:46:33.299Z,9.719648
2023-05-21T07:47:33.314Z,9.719567
2023-05-21T07:48:35.430Z,9.719513
2023-05-21T07:49:34.261Z,9.719513
2023-05-21T07:50:33.275Z,9.719513
2023-05-21T07:51:33.236Z,9.719513
2023-05-21T07:52:33.260Z,9.719513
2023-05-21T07:53:33.220Z,9.719513
2023-05-21T07:54:33.310Z,9.719513
2023-05-21T07:55:33.196Z,9.719513
2023-05-21T07:56:33.191Z,9.719623
2023-05-21T07:57:33.217Z,9.719623
2023-05-21T07:58:33.160Z,9.719624
2023-05-21T07:59:33.162Z,9.719532
2023-05-21T08:00:33.157Z,9.719492
2023-05-21T08:01:33.166Z,9.719361
2023-05-21T08:02:33.229Z,9.719176
2023-05-21T08:03:33.306Z,9.718972
2023-05-21T08:04:33.156Z,9.718846
2023-05-21T08:05:33.123Z,9.718817
2023-05-21T08:06:33.088Z,9.719041
2023-05-21T08:07:33.089Z,9.719064
2023-05-21T08:08:33.064Z,9.719192
2023-05-21T08:09:33.083Z,9.719031
2023-05-21T08:10:33.042Z,9.718992
2023-05-21T08:11:33.090Z,9.718952
2023-05-21T08:12:33.040Z,9.719024
2023-05-21T08:13:33.026Z,9.719162
2023-05-21T08:14:33.042Z,9.719023
2023-05-21T08:15:32.996Z,9.718906
2023-05-21T08:16:33.023Z,9.718902
2023-05-21T08:17:33.013Z,9.718950
2023-05-21T08:18:32.998Z,9.718972
2023-05-21T08:19:33.052Z,9.719080
2023-05-21T08:20:32.972Z,9.719335
2023-05-21T08:21:32.942Z,9.719293
2023-05-21T08:22:32.936Z,9.719298
2023-05-21T08:23:32.938Z,9.719351
2023-05-21T08:24:32.935Z,9.719344
2023-05-21T08:25:32.893Z,9.719379
2023-05-21T08:26:32.877Z,9.719464
2023-05-21T08:27:32.889Z,9.719384
2023-05-21T08:28:32.876Z,9.719270
2023-05-21T08:29:32.857Z,9.719266
2023-05-21T08:30:32.842Z,9.719303
2023-05-21T08:31:32.875Z,9.719322
2023-05-21T08:32:32.841Z,9.719329
2023-05-21T08:33:32.820Z,9.719302
2023-05-21T08:34:32.820Z,9.719340
2023-05-21T08:35:32.792Z,9.719343
2023-05-21T08:36:32.878Z,9.719316
2023-05-21T08:37:32.782Z,9.719299
2023-05-21T08:38:32.777Z,9.719412
2023-05-21T08:39:32.765Z,9.719454
2023-05-21T08:40:32.762Z,9.719453
2023-05-21T08:41:32.731Z,9.719421
2023-05-21T08:43:33.745Z,9.719351
2023-05-21T08:44:32.732Z,9.719350
2023-05-21T08:45:32.713Z,9.719364
2023-05-21T08:46:32.712Z,9.719355
2023-05-21T08:47:32.678Z,9.719382
2023-05-21T08:48:32.675Z,9.719371
2023-05-21T08:49:32.680Z,9.719344
2023-05-21T08:50:32.648Z,9.719352
2023-05-21T08:51:32.644Z,9.719435
2023-05-21T08:52:32.627Z,9.719419
2023-05-21T08:53:32.617Z,9.719399
2023-05-21T08:54:32.657Z,9.719391
2023-05-21T08:55:32.600Z,9.719408
2023-05-21T08:56:32.599Z,9.719336
2023-05-21T08:57:32.617Z,9.719309
2023-05-21T08:58:32.569Z,9.719355
2023-05-21T08:59:32.556Z,9.719343
2023-05-21T09:00:32.561Z,9.719312
2023-05-21T09:01:32.562Z,9.719205
2023-05-21T09:02:32.548Z,9.719215
2023-05-21T09:03:32.634Z,9.719080
2023-05-21T09:04:32.563Z,9.719043
2023-05-21T09:05:32.506Z,9.719087
2023-05-21T09:06:32.541Z,9.719131
2023-05-21T09:07:32.505Z,9.719206
2023-05-21T09:08:32.494Z,9.719214
2023-05-21T09:09:32.471Z,9.719157
2023-05-21T09:10:32.465Z,9.719170
2023-05-21T09:11:32.433Z,9.719261
2023-05-21T09:12:32.446Z,9.719248
2023-05-21T09:13:32.448Z,9.719144
2023-05-21T09:14:32.414Z,9.719218
2023-05-21T09:15:32.410Z,9.719228
2023-05-21T09:16:32.422Z,9.719241
2023-05-21T09:17:32.392Z,9.719316
2023-05-21T09:18:32.382Z,9.719360
2023-05-21T09:19:32.671Z,9.719419
2023-05-21T09:20:32.355Z,9.719341
2023-05-21T09:21:32.396Z,9.719375
2023-05-21T09:22:32.323Z,9.719389
2023-05-21T09:23:32.327Z,9.719403
2023-05-21T09:24:33.718Z,9.719492
2023-05-21T09:25:32.395Z,9.719436
2023-05-21T09:26:32.374Z,9.719292
2023-05-21T09:27:32.284Z,9.719242
2023-05-21T09:28:32.286Z,9.719163
2023-05-21T09:29:32.252Z,9.719268
2023-05-21T09:30:34.809Z,9.719252
2023-05-21T09:31:32.380Z,9.719244
2023-05-21T09:32:32.309Z,9.719313
2023-05-21T09:33:32.281Z,9.719320
2023-05-21T09:34:32.209Z,9.719263
2023-05-21T09:35:32.187Z,9.719327
2023-05-21T09:36:32.244Z,9.719192
2023-05-21T09:37:32.203Z,9.719318
2023-05-21T09:38:32.191Z,9.719322
2023-05-21T09:39:33.174Z,9.719305
2023-05-21T09:40:32.189Z,9.719412
2023-05-21T09:41:32.155Z,9.719366
2023-05-21T09:42:32.125Z,9.719303
2023-05-21T09:43:32.157Z,9.719283
2023-05-21T09:44:32.110Z,9.719194
2023-05-21T09:45:32.103Z,9.719394
2023-05-21T09:46:32.144Z,9.719483
2023-05-21T09:47:32.157Z,9.719446
2023-05-21T09:48:32.099Z,9.719275
2023-05-21T09:49:32.056Z,9.719567
2023-05-21T09:50:32.050Z,9.719391
2023-05-21T09:51:33.315Z,9.719398
2023-05-21T09:52:32.040Z,9.719433
2023-05-21T09:53:32.025Z,9.719356
2023-05-21T09:54:32.024Z,9.719345
2023-05-21T09:55:32.095Z,9.719308
2023-05-21T09:56:32.016Z,9.719467
2023-05-21T09:57:32.004Z,9.719507
2023-05-21T09:58:31.957Z,9.719353
2023-05-21T09:59:32.007Z,9.719344
2023-05-21T10:00:32.021Z,9.719464
2023-05-21T10:01:32.033Z,9.719392
2023-05-21T10:02:32.971Z,9.719373
2023-05-21T10:03:31.940Z,9.719357
2023-05-21T10:04:31.948Z,9.719398
2023-05-21T10:05:31.933Z,9.719385
2023-05-21T10:06:31.955Z,9.719337
2023-05-21T10:07:31.911Z,9.719501
2023-05-21T10:08:31.868Z,9.719565
2023-05-21T10:09:31.864Z,9.719584
2023-05-21T10:10:32.030Z,9.719698
2023-05-21T10:11:31.858Z,9.720073
2023-05-21T10:12:31.853Z,9.719934
2023-05-21T10:13:31.834Z,9.719751
2023-05-21T10:14:31.862Z,9.719722
2023-05-21T10:15:31.821Z,9.719747
2023-05-21T10:16:31.882Z,9.719760
2023-05-21T10:17:31.857Z,9.719707
2023-05-21T10:18:31.771Z,9.719672
2023-05-21T10:19:31.836Z,9.719509
2023-05-21T10:20:31.759Z,9.719461
2023-05-21T10:21:31.749Z,9.719648
2023-05-21T10:22:31.780Z,9.719661
2023-05-21T10:23:32.753Z,9.719461
2023-05-21T10:24:31.729Z,9.719383
2023-05-21T10:25:31.803Z,9.719352
2023-05-21T10:26:31.725Z,9.719323
2023-05-21T10:27:32.798Z,9.719162
2023-05-21T10:28:31.692Z,9.719381
2023-05-21T10:29:31.715Z,9.719361
2023-05-21T10:30:31.675Z,9.719495
2023-05-21T10:31:31.647Z,9.719526
2023-05-21T10:32:31.876Z,9.719317
2023-05-21T10:33:31.691Z,9.719417
2023-05-21T10:34:31.627Z,9.719349
2023-05-21T10:35:31.609Z,9.719310
2023-05-21T10:36:31.599Z,9.719333
2023-05-21T10:37:31.601Z,9.719380
2023-05-21T10:38:31.596Z,9.719341
2023-05-21T10:39:31.601Z,9.719342
2023-05-21T10:40:31.559Z,9.719376
2023-05-21T10:41:31.552Z,9.719284
2023-05-21T10:42:31.557Z,9.719369
2023-05-21T10:43:31.560Z,9.719318
2023-05-21T10:44:31.544Z,9.719250
2023-05-21T10:45:31.559Z,9.719151
2023-05-21T10:46:31.509Z,9.719210
2023-05-21T10:47:31.517Z,9.719366
2023-05-21T10:48:31.517Z,9.719260
2023-05-21T10:49:31.506Z,9.719285
2023-05-21T10:50:31.527Z,9.719332
2023-05-21T10:51:31.464Z,9.719254
2023-05-21T10:52:31.450Z,9.719361
2023-05-21T10:53:31.446Z,9.719389
2023-05-21T10:54:31.435Z,9.719324
2023-05-21T10:55:31.411Z,9.719337
2023-05-21T10:57:03.427Z,9.719305
2023-05-21T10:57:31.434Z,9.719312
2023-05-21T10:58:31.384Z,9.719425
2023-05-21T10:59:31.410Z,9.719425
2023-05-21T11:00:31.366Z,9.719394
2023-05-21T11:01:31.447Z,9.719427
2023-05-21T11:02:31.497Z,9.719431
2023-05-21T11:03:32.512Z,9.719412
2023-05-21T11:04:31.334Z,9.719318
2023-05-21T11:05:31.396Z,9.719353
2023-05-21T11:06:31.312Z,9.719345
2023-05-21T11:07:31.387Z,9.719375
2023-05-21T11:08:31.312Z,9.719362
2023-05-21T11:09:31.298Z,9.719398
2023-05-21T11:10:31.279Z,9.719374
2023-05-21T11:11:31.263Z,9.719162
2023-05-21T11:12:31.277Z,9.719172
2023-05-21T11:13:31.305Z,9.719228
2023-05-21T11:14:31.232Z,9.719301
2023-05-21T11:15:31.236Z,9.719602
2023-05-21T11:16:31.264Z,9.719354
2023-05-21T11:17:31.243Z,9.719429
2023-05-21T11:18:31.210Z,9.719376
2023-05-21T11:19:33.286Z,9.719139
2023-05-21T11:20:32.183Z,9.719168
2023-05-21T11:21:31.242Z,9.718819
2023-05-21T11:22:31.155Z,9.719053
2023-05-21T11:23:31.150Z,9.718945
2023-05-21T11:24:31.158Z,9.718565
2023-05-21T11:25:31.129Z,9.718873
2023-05-21T11:26:31.112Z,9.718842
2023-05-21T11:27:31.138Z,9.718862
2023-05-21T11:28:31.104Z,9.719068
2023-05-21T11:29:31.170Z,9.719016
2023-05-21T11:30:31.104Z,9.718870
2023-05-21T11:31:31.098Z,9.718764
2023-05-21T11:32:31.087Z,9.718918
2023-05-21T11:33:32.053Z,9.719184
2023-05-21T11:34:31.071Z,9.719002
2023-05-21T11:35:31.086Z,9.718966
2023-05-21T11:36:31.023Z,9.718850
2023-05-21T11:37:31.048Z,9.718897
2023-05-21T11:38:31.115Z,9.719009
2023-05-21T11:39:31.026Z,9.718933
2023-05-21T11:40:31.030Z,9.718654
2023-05-21T11:41:30.970Z,9.718720
2023-05-21T11:42:31.465Z,9.719177
2023-05-21T11:43:30.956Z,9.719086
2023-05-21T11:44:30.951Z,9.719110
2023-05-21T11:45:30.955Z,9.719178